Ana Sayfa
METAR-TAF:

METAR-TAF

Havaalanları :

Ercan Uluslararası Havalimanı

Lefkoşa, Kıbrıs

Enlem: 35-09N, Boylam: 033-30E, yükseklik: 91 m

Güncel hava durumu gözlemi

Rapor saat 04:20 UTC de 35 dakika önce yapıldı.
Rüzgar batıdan 5 kt
Sıcaklık 25°C
Nem 34%
Basınç 1005 hPa
Görüş mesafesi 10 km veya daha fazla
2000 ft yükseklikte az bulutlu

METAR: LCEN 150420Z 27005KT 9999 FEW020 25/08 Q1005 NOSIG

Saat: 07:55 (04:55 UTC)

Tahmin

Rapor saat 22:40 UTC de 6 saat ve 15 dakika önce yapıldı.
Ayın 15'si saat 00 UTC'den ayın 15'si saat 24 UTC'ye kadar geçerli Tahmin
Rüzgar batıdan 12 kt
Görüş mesafesi 10 km veya daha fazla
1500 m altında bulut yok ve kümülonimbus yok
Dönüşüyor
ayın 15'si saat 06 UTC'den ayın 15'si saat 09 UTC'ye kadar
Rüzgar kuzey/kuzeydoğudan 12 kt

TAF: LCEN 142240Z 1500/1524 28012KT CAVOK BECMG 1506/1509 02012KT

4.000'den fazla havaalanı için hava durumu gözlemleri ve tahminleri (METAR ve TAF raporları).

Kullanılabilir istasyonlar harita üzerinde sarı ve kırmızı noktalarla gösterilir.

İstasyonun adını görmek için fareyi noktanın üzerinde gezdirin.

Sonrasında hava gözlem ve tahminlerini görmek için tıklayın.

Haritayı değiştirmek için: yaklaştırmak için siyah artı işaretli yeşil düğmeye ve uzaklaştırmak için de eksi işaretli düğmeye hızla tıklayın; bitişik haritalar için yeşil okları kullanın.


METAR-TAF: